Pagina principale
METAR-TAF:

METAR-TAF

Aeroporti :

Aeroporto di Osijek-Klisa

Osijek, Croazia

latitudine: 45-27N, longitudine: 018-48E, altezza: 88 m

Osservazione

Il bollettino è stato emesso 16 minuti fa, alle 10:30 UTC
Vento 14 kt da ovest
Temperature 16°C
Umidità 77%
Pressione 1022 hPa
Visibilità 10 km o più
nessuna nube inferiore a 1500 m e nessun cumulonembo

METAR: LDOS 311030Z 28014KT CAVOK 16/12 Q1022

Ora: 11:46 (10:46 UTC)

Previsione

Il bollettino è stato emesso 38 minuti fa, alle 10:08 UTC
Previsione valida dal 31 alle 10 UTC al 01 alle 06 UTC
Vento 12 kt da ovest
Visibilità 10 km o più
Poco nuvoloso ad un'altezza di 4500 ft
Evoluzione graduale
dal 31 alle 15 UTC al 31 alle 17 UTC
Vento 5 kt da ovest/nord-ovest
Evoluzione graduale
dal 01 alle 04 UTC al 01 alle 06 UTC
Vento 6 kt da est/sud-est

TAF: LDOS 311008Z 3110/0106 28012KT 9999 FEW045 TX17/3112Z TN08/0103Z BECMG 3115/3117 30005KT BECMG 0104/0106 11006KT

Osservazioni e previsioni meteorologiche di più di 4000 aeroporti (messaggi METAR e TAF).

Le stazioni disponibili sono rappresentate dai dischi gialli e rossi sulla carta.

Puntare il mouse per vedere il nome della stazione.

Clicca sopra per visualizzare le osservazioni e previsioni meteorologiche.

Per cambiare la mappa : fare clic sui pulsanti verdi con una croce nera per ingrandire, il pulsante verde con un trattino per diminuire, o sulla freccia verde per le mappe adiacenti.


METAR-TAF: